Time;durP1;ratioP1;P1;durP2;ratioP2;P2;SDS_P1;SDS_P2;PMS_P1;PMS_P2;Temp;Humidity;BMP_temperature;BMP_pressure;BME280_temperature;BME280_humidity;BME280_pressure;Samples;Min_cycle;Max_cycle;Signal;HPM_P1;HPM_P2
2022/08/14 00:00:41;;;;;;;;;8.00;8.00;;;;;26.67;25.37;100483.25;6313418;22;45310;-78
2022/08/14 00:03:06;;;;;;;;;6.25;6.25;;;;;26.64;25.32;100481.66;6313652;22;45513;-79
2022/08/14 00:05:32;;;;;;;;;9.75;8.50;;;;;26.63;25.55;100474.53;6313255;22;47274;-80
2022/08/14 00:07:57;;;;;;;;;8.50;6.75;;;;;26.59;25.54;100467.63;6342331;22;45458;-79
2022/08/14 00:10:23;;;;;;;;;8.25;7.25;;;;;26.51;25.45;100459.22;6342959;22;45161;-80
2022/08/14 00:12:53;;;;;;;;;8.50;8.50;;;;;26.45;25.28;100457.84;6340541;22;45188;-80
2022/08/14 00:15:23;;;;;;;;;7.00;7.00;;;;;26.44;25.53;100466.03;6341870;22;46588;-80
2022/08/14 00:17:49;;;;;;;;;7.00;7.00;;;;;26.36;25.58;100459.38;6313972;22;45176;-79
2022/08/14 00:20:19;;;;;;;;;8.25;8.00;;;;;26.31;25.93;100448.06;6312346;22;45401;-81
2022/08/14 00:22:44;;;;;;;;;6.50;6.00;;;;;26.26;25.84;100457.50;6336975;22;45472;-80
2022/08/14 00:25:10;;;;;;;;;8.00;6.00;;;;;26.26;26.09;100452.94;6338983;22;46992;-81
2022/08/14 00:27:36;;;;;;;;;6.50;6.50;;;;;26.19;26.10;100440.88;6310883;22;45410;-81
2022/08/14 00:30:02;;;;;;;;;7.25;7.00;;;;;26.17;26.06;100437.44;6311202;22;45611;-80
2022/08/14 00:32:28;;;;;;;;;7.25;6.00;;;;;26.14;25.90;100435.84;6337048;22;45478;-80
2022/08/14 00:34:55;;;;;;;;;6.50;6.50;;;;;26.14;25.91;100426.84;6339214;22;46073;-81
2022/08/14 00:37:20;;;;;;;;;7.25;7.25;;;;;26.06;26.29;100430.16;6310935;22;45494;-80
2022/08/14 00:39:45;;;;;;;;;7.50;7.50;;;;;26.06;26.22;100432.84;6311155;22;45819;-80
2022/08/14 00:42:11;;;;;;;;;7.50;6.50;;;;;26.01;26.17;100424.22;6340986;22;45358;-80
2022/08/14 00:44:36;;;;;;;;;6.50;6.00;;;;;26.00;26.26;100427.00;6341915;22;45730;-80
2022/08/14 00:47:08;;;;;;;;;6.50;6.25;;;;;26.00;26.67;100427.88;6313758;22;45292;-80
2022/08/14 00:49:35;;;;;;;;;8.75;7.50;;;;;25.93;26.84;100424.78;6342353;22;45234;-80
2022/08/14 00:52:00;;;;;;;;;7.00;6.25;;;;;25.96;26.55;100429.09;6313268;22;45795;-80
2022/08/14 00:54:26;;;;;;;;;7.00;7.00;;;;;25.88;26.83;100420.69;6312640;22;46144;-80
2022/08/14 00:56:52;;;;;;;;;8.75;8.00;;;;;25.81;26.79;100413.97;6313476;22;45836;-81
2022/08/14 00:59:18;;;;;;;;;6.25;5.00;;;;;25.78;26.96;100415.06;6313727;22;45268;-81
2022/08/14 01:01:45;;;;;;;;;7.75;6.00;;;;;25.79;26.45;100421.31;6341916;22;45622;-80
2022/08/14 01:04:11;;;;;;;;;8.00;6.75;;;;;25.77;26.92;100417.84;6341950;22;45392;-81
2022/08/14 01:06:36;;;;;;;;;7.25;7.25;;;;;25.77;27.32;100415.16;6313300;22;45399;-80
2022/08/14 01:09:02;;;;;;;;;6.25;6.25;;;;;25.74;27.12;100411.75;6313854;22;45181;-80
2022/08/14 01:11:29;;;;;;;;;8.00;7.00;;;;;25.71;27.35;100403.00;6313658;22;45441;-80
2022/08/14 01:13:59;;;;;;;;;6.00;6.00;;;;;25.65;27.04;100390.81;6313609;22;47462;-80
2022/08/14 01:16:26;;;;;;;;;5.25;5.25;;;;;25.68;27.28;100390.59;6342111;22;45212;-80
2022/08/14 01:21:39;;;;;;;;;6.75;5.00;;;;;25.60;26.86;100378.66;6342035;22;45357;-80
2022/08/14 01:24:06;;;;;;;;;6.00;5.00;;;;;25.64;27.40;100388.25;6341588;22;46621;-80
2022/08/14 01:26:33;;;;;;;;;5.00;5.00;;;;;25.61;27.02;100370.47;6342444;22;45359;-80
2022/08/14 01:28:58;;;;;;;;;5.75;5.75;;;;;25.61;27.48;100375.84;6313902;22;45279;-80
2022/08/14 01:31:28;;;;;;;;;5.00;5.00;;;;;25.58;27.53;100369.81;6287360;22;45197;-80
2022/08/14 01:33:57;;;;;;;;;4.75;4.75;;;;;25.58;27.74;100367.09;6313565;22;48151;-81
2022/08/14 01:36:25;;;;;;;;;7.25;6.50;;;;;25.57;27.46;100377.03;6313128;22;45428;-81
2022/08/14 01:38:55;;;;;;;;;6.75;6.00;;;;;25.46;27.47;100369.72;6339589;22;45410;-81
2022/08/14 01:41:22;;;;;;;;;7.25;5.25;;;;;25.45;27.54;100383.31;6341868;22;45396;-80
2022/08/14 01:43:47;;;;;;;;;4.25;4.00;;;;;25.47;27.36;100394.84;6339850;22;46367;-81
2022/08/14 01:46:17;;;;;;;;;6.00;5.00;;;;;25.45;27.61;100389.56;6341983;22;45328;-81
2022/08/14 01:48:44;;;;;;;;;4.00;4.00;;;;;25.40;27.22;100378.25;6341871;22;45235;-81
2022/08/14 01:51:11;;;;;;;;;7.25;5.50;;;;;25.43;27.85;100388.81;6313496;22;45467;-80
2022/08/14 01:53:44;;;;;;;;;6.00;6.00;;;;;25.36;27.54;100375.88;6338861;22;47856;-81
2022/08/14 01:56:10;;;;;;;;;5.00;5.00;;;;;25.37;28.15;100374.91;6313150;22;45259;-80
2022/08/14 01:58:36;;;;;;;;;5.75;5.75;;;;;25.36;27.46;100383.97;6342116;22;45222;-80
2022/08/14 02:01:03;;;;;;;;;4.00;4.00;;;;;25.32;28.09;100375.25;6313013;22;45484;-80
2022/08/14 02:03:34;;;;;;;;;6.00;6.00;;;;;25.30;27.93;100375.34;6339411;22;48387;-80
2022/08/14 02:06:02;;;;;;;;;4.00;4.00;;;;;25.30;28.02;100374.50;6312730;22;45257;-80
2022/08/14 02:08:31;;;;;;;;;6.00;5.50;;;;;25.32;27.79;100382.47;6313007;22;45351;-81
2022/08/14 02:11:17;;;;;;;;;4.00;4.00;;;;;25.26;28.20;100367.56;6341233;22;45139;-80
2022/08/14 02:13:49;;;;;;;;;5.50;4.25;;;;;25.27;28.45;100356.72;6341504;22;46258;-81
2022/08/14 02:16:16;;;;;;;;;5.00;4.00;;;;;25.31;28.11;100362.72;6341613;22;45338;-80
2022/08/14 02:18:42;;;;;;;;;4.00;4.00;;;;;25.26;27.75;100349.59;6313621;22;45199;-80
2022/08/14 02:21:08;;;;;;;;;3.25;3.25;;;;;25.30;28.04;100352.94;6313131;22;45220;-80
2022/08/14 02:23:35;;;;;;;;;6.50;5.50;;;;;25.27;28.00;100337.00;6341122;22;46105;-80
2022/08/14 02:26:03;;;;;;;;;3.25;3.25;;;;;25.24;28.20;100332.69;6313494;22;45161;-80
2022/08/14 02:28:30;;;;;;;;;4.00;4.00;;;;;25.23;28.36;100335.47;6341328;22;45368;-81
2022/08/14 02:30:58;;;;;;;;;6.00;6.00;;;;;25.21;28.39;100327.50;6313341;22;45439;-81
2022/08/14 02:33:23;;;;;;;;;5.00;4.00;;;;;25.20;28.34;100328.47;6341308;22;46123;-81
2022/08/14 02:35:49;;;;;;;;;5.25;5.25;;;;;25.16;28.25;100326.97;6312919;22;45256;-81
2022/08/14 02:38:14;;;;;;;;;5.25;4.25;;;;;25.15;28.46;100317.16;6341192;22;45093;-80
2022/08/14 02:40:40;;;;;;;;;5.50;5.50;;;;;25.13;28.35;100316.38;6341720;22;45285;-80
2022/08/14 02:43:05;;;;;;;;;3.25;3.25;;;;;25.14;28.46;100315.41;6313363;22;47100;-80
2022/08/14 02:45:33;;;;;;;;;4.00;4.00;;;;;25.18;28.13;100313.38;6313231;22;45593;-80
2022/08/14 02:48:05;;;;;;;;;4.25;4.25;;;;;25.18;28.13;100319.66;6341410;22;45236;-80
2022/08/14 02:50:31;;;;;;;;;4.00;4.00;;;;;25.11;28.35;100310.25;6339341;22;45703;-80
2022/08/14 02:52:56;;;;;;;;;4.00;4.00;;;;;25.12;28.73;100306.56;6340972;22;45202;-81
2022/08/14 02:55:22;;;;;;;;;6.50;5.25;;;;;25.06;28.38;100293.53;6341263;22;45383;-81
2022/08/14 02:57:50;;;;;;;;;4.00;4.00;;;;;25.10;28.47;100303.16;6313418;22;45267;-81
2022/08/14 03:00:17;;;;;;;;;4.25;4.25;;;;;25.09;28.71;100304.94;6312618;22;45367;-80
2022/08/14 03:02:42;;;;;;;;;4.00;4.00;;;;;25.00;28.72;100297.53;6341031;22;46412;-80
2022/08/14 03:05:08;;;;;;;;;5.00;5.00;;;;;24.98;28.46;100298.63;6312910;22;45257;-80
2022/08/14 03:07:33;;;;;;;;;5.75;5.75;;;;;24.95;29.04;100298.84;6340979;22;45168;-80
2022/08/14 03:09:59;;;;;;;;;5.00;5.00;;;;;24.98;28.31;100310.25;6312463;22;45477;-80
2022/08/14 03:12:25;;;;;;;;;5.50;5.00;;;;;24.94;29.19;100306.06;6341027;22;45261;-80
2022/08/14 03:14:51;;;;;;;;;6.00;5.25;;;;;24.93;28.97;100304.31;6312973;22;45283;-80
2022/08/14 03:17:17;;;;;;;;;6.25;5.25;;;;;24.96;28.92;100308.63;6341961;22;45302;-81
2022/08/14 03:19:42;;;;;;;;;6.00;6.00;;;;;24.92;28.96;100304.44;6342504;22;45309;-80
2022/08/14 03:22:08;;;;;;;;;5.00;5.00;;;;;24.86;28.88;100295.84;6342312;22;45501;-80
2022/08/14 03:24:35;;;;;;;;;6.25;6.25;;;;;24.84;29.16;100303.16;6313777;22;45446;-80
2022/08/14 03:27:01;;;;;;;;;6.00;6.00;;;;;24.82;29.41;100296.16;6342563;22;45298;-81
2022/08/14 03:29:27;;;;;;;;;4.00;4.00;;;;;24.79;28.89;100293.66;6314189;22;45271;-81
2022/08/14 03:31:56;;;;;;;;;6.75;6.75;;;;;24.84;29.01;100313.91;6342449;22;45148;-81
2022/08/14 03:34:22;;;;;;;;;7.00;5.75;;;;;24.81;29.44;100303.38;6313590;22;45474;-80
2022/08/14 03:36:53;;;;;;;;;6.25;5.75;;;;;24.77;29.24;100292.91;6313883;22;45378;-80
2022/08/14 03:39:20;;;;;;;;;5.00;3.50;;;;;24.74;29.11;100293.13;6313901;22;45380;-80
2022/08/14 03:41:46;;;;;;;;;6.75;5.25;;;;;24.72;29.27;100295.91;6342066;22;45369;-79
2022/08/14 03:44:12;;;;;;;;;7.25;7.25;;;;;24.75;29.26;100305.63;6313959;22;45430;-80
2022/08/14 03:46:41;;;;;;;;;6.25;6.25;;;;;24.76;29.80;100307.34;6342621;22;45384;-80
2022/08/14 03:49:08;;;;;;;;;7.75;7.00;;;;;24.65;29.80;100291.97;6342062;22;45460;-80
2022/08/14 03:51:35;;;;;;;;;6.00;6.00;;;;;24.68;29.70;100305.19;6312599;22;47713;-80
2022/08/14 03:54:04;;;;;;;;;6.25;6.25;;;;;24.66;29.23;100309.81;6341946;22;45546;-80
2022/08/14 03:56:30;;;;;;;;;6.25;6.25;;;;;24.67;29.51;100316.91;6314103;22;45383;-80
2022/08/14 03:59:01;;;;;;;;;7.75;6.00;;;;;24.64;29.60;100311.75;6341956;22;45434;-81
2022/08/14 04:01:27;;;;;;;;;7.00;5.50;;;;;24.68;29.79;100326.72;6313858;22;47959;-80
2022/08/14 04:03:57;;;;;;;;;7.50;7.00;;;;;24.69;30.15;100332.97;6313717;22;45381;-80
2022/08/14 04:06:23;;;;;;;;;6.00;6.00;;;;;24.60;30.12;100319.19;6342568;22;45160;-80
2022/08/14 04:08:49;;;;;;;;;6.00;5.50;;;;;24.62;30.23;100329.84;6313864;22;45187;-80
2022/08/14 04:11:16;;;;;;;;;6.00;6.00;;;;;24.61;29.94;100322.72;6314057;22;47297;-80
2022/08/14 04:13:43;;;;;;;;;6.50;6.50;;;;;24.60;30.13;100329.09;6342160;22;45290;-80
2022/08/14 04:16:11;;;;;;;;;6.25;6.25;;;;;24.60;29.98;100323.72;6339936;22;45266;-80
2022/08/14 04:18:42;;;;;;;;;8.00;8.00;;;;;24.63;30.38;100335.13;6342005;22;45425;-80
2022/08/14 04:21:09;;;;;;;;;5.00;5.00;;;;;24.57;29.75;100322.09;6341947;22;45413;-80
2022/08/14 04:23:35;;;;;;;;;6.00;5.00;;;;;24.60;29.98;100323.72;6313519;22;45202;-80
2022/08/14 04:26:07;;;;;;;;;5.25;5.25;;;;;24.54;30.19;100307.97;6339365;22;45322;-80
2022/08/14 04:28:35;;;;;;;;;5.25;5.25;;;;;24.55;30.42;100304.31;6340033;22;45472;-80
2022/08/14 04:31:01;;;;;;;;;6.50;6.50;;;;;24.57;30.39;100321.25;6341726;22;45325;-80
2022/08/14 04:33:27;;;;;;;;;7.00;6.50;;;;;24.57;30.50;100326.63;6340034;22;45403;-81
2022/08/14 04:35:53;;;;;;;;;6.25;6.25;;;;;24.57;30.47;100338.25;6342172;22;45237;-81
2022/08/14 04:43:49;;;;;;;;;8.00;8.00;;;;;24.57;30.09;100315.84;6342382;22;45128;-81
2022/08/14 04:46:17;;;;;;;;;5.50;5.00;;;;;24.54;30.46;100306.16;6342596;22;45578;-80
2022/08/14 04:48:43;;;;;;;;;6.50;5.75;;;;;24.57;30.42;100302.41;6342321;22;45263;-80
2022/08/14 04:51:11;;;;;;;;;9.00;8.00;;;;;24.52;30.75;100291.09;6342085;22;46339;-80
2022/08/14 04:53:42;;;;;;;;;6.00;6.00;;;;;24.54;30.71;100295.41;6313191;22;45326;-80
2022/08/14 04:56:13;;;;;;;;;7.25;7.25;;;;;24.58;30.63;100290.66;6340012;22;45384;-80
2022/08/14 04:58:41;;;;;;;;;7.25;7.25;;;;;24.57;30.54;100287.09;6342121;22;45183;-80
2022/08/14 05:01:08;;;;;;;;;6.75;6.75;;;;;24.54;30.74;100281.03;6312916;22;48034;-80
2022/08/14 05:03:36;;;;;;;;;7.25;7.00;;;;;24.62;30.82;100292.19;6339642;22;45357;-80
2022/08/14 05:06:07;;;;;;;;;7.25;6.50;;;;;24.64;30.50;100282.13;6313730;22;45442;-80
2022/08/14 05:08:33;;;;;;;;;8.75;7.00;;;;;24.63;30.66;100269.66;6313046;22;45397;-80
2022/08/14 05:11:01;;;;;;;;;7.00;7.00;;;;;24.64;30.85;100272.25;6341726;22;45461;-80
2022/08/14 05:13:29;;;;;;;;;6.75;6.75;;;;;24.67;30.67;100256.84;6313699;22;45295;-80
2022/08/14 05:15:57;;;;;;;;;7.50;7.50;;;;;24.67;30.84;100257.69;6341925;22;45225;-80
2022/08/14 05:18:25;;;;;;;;;6.50;6.50;;;;;24.65;30.36;100265.03;6313605;22;45374;-80
2022/08/14 05:20:53;;;;;;;;;6.25;6.25;;;;;24.63;30.82;100265.13;6341572;22;45385;-80
2022/08/14 05:23:24;;;;;;;;;6.75;6.75;;;;;24.75;31.05;100284.06;6341515;22;45255;-80
2022/08/14 05:25:57;;;;;;;;;7.00;7.00;;;;;24.74;31.07;100285.06;6313465;22;45442;-80
2022/08/14 05:28:26;;;;;;;;;6.50;6.50;;;;;24.67;31.19;100286.44;6312773;22;45790;-80
2022/08/14 05:30:57;;;;;;;;;5.00;4.25;;;;;24.64;30.73;100288.41;6341655;22;45397;-80
2022/08/14 05:33:24;;;;;;;;;6.75;6.00;;;;;24.63;30.99;100283.97;6341893;22;45397;-80
2022/08/14 05:35:51;;;;;;;;;6.75;6.00;;;;;24.70;31.18;100288.91;6342014;22;45322;-80
2022/08/14 05:38:20;;;;;;;;;8.25;6.75;;;;;24.68;30.99;100293.56;6341540;22;45372;-81
2022/08/14 05:40:53;;;;;;;;;6.25;6.25;;;;;24.63;31.10;100294.75;6340862;22;45298;-81
2022/08/14 05:43:19;;;;;;;;;7.50;6.75;;;;;24.62;31.54;100289.47;6313734;22;45164;-80
2022/08/14 05:45:44;;;;;;;;;6.50;6.50;;;;;24.67;32.62;100291.81;6342084;22;45110;-80
2022/08/14 05:48:13;;;;;;;;;7.25;7.25;;;;;24.58;32.84;100272.66;6313682;22;45188;-80
2022/08/14 05:50:39;;;;;;;;;7.50;7.50;;;;;24.58;33.45;100269.97;6341785;22;45875;-80
2022/08/14 05:53:04;;;;;;;;;8.00;7.00;;;;;24.51;33.24;100262.44;6341453;22;45290;-81
2022/08/14 05:55:30;;;;;;;;;6.00;6.00;;;;;24.45;33.52;100252.09;6342340;22;45320;-80
2022/08/14 05:57:58;;;;;;;;;10.50;8.50;;;;;24.48;33.65;100250.03;6342068;22;45422;-81
2022/08/14 06:00:28;;;;;;;;;6.75;5.75;;;;;24.48;34.20;100266.19;6313313;22;47096;-80
2022/08/14 06:02:55;;;;;;;;;8.00;7.00;;;;;24.52;33.79;100264.16;6313260;22;45796;-76
2022/08/14 06:05:21;;;;;;;;;10.00;9.00;;;;;24.42;33.94;100248.59;6312867;22;45323;-78
2022/08/14 06:07:46;;;;;;;;;6.75;6.75;;;;;24.45;34.50;100260.16;6341215;22;45361;-77
2022/08/14 06:10:12;;;;;;;;;7.00;7.00;;;;;24.36;34.22;100238.28;6313209;22;48288;-77
2022/08/14 06:12:37;;;;;;;;;9.00;8.00;;;;;24.40;34.06;100255.94;6341655;22;45180;-78
2022/08/14 06:15:04;;;;;;;;;8.25;8.25;;;;;24.41;34.07;100289.97;6313374;22;45255;-78
2022/08/14 06:17:30;;;;;;;;;6.25;6.25;;;;;24.43;34.32;100260.22;6313318;22;45241;-78
2022/08/14 06:19:55;;;;;;;;;8.00;8.00;;;;;24.42;34.58;100245.06;6341369;22;45384;-78
2022/08/14 06:22:21;;;;;;;;;7.75;7.75;;;;;24.37;34.47;100274.13;6340749;22;45194;-78
2022/08/14 06:24:46;;;;;;;;;12.25;7.00;;;;;24.38;34.68;100255.19;6341725;22;45220;-78
2022/08/14 06:27:12;;;;;;;;;8.75;8.75;;;;;24.36;34.40;100254.44;6341505;22;45140;-78
2022/08/14 06:29:37;;;;;;;;;11.50;11.00;;;;;24.40;34.41;100255.06;6341271;22;45389;-78
2022/08/14 06:32:03;;;;;;;;;7.25;7.25;;;;;24.36;34.67;100254.44;6341433;22;45359;-78
2022/08/14 06:34:31;;;;;;;;;9.00;9.00;;;;;24.42;34.79;100250.44;6341600;22;45244;-78
2022/08/14 06:36:56;;;;;;;;;7.00;7.00;;;;;24.43;34.70;100260.22;6340940;22;45207;-77
2022/08/14 06:39:23;;;;;;;;;6.25;6.25;;;;;24.51;34.75;100263.31;6341262;22;45693;-78
2022/08/14 06:41:48;;;;;;;;;9.50;8.75;;;;;24.50;34.95;100261.56;6341456;22;45206;-78
2022/08/14 06:44:14;;;;;;;;;9.00;8.00;;;;;24.57;34.66;100262.88;6313236;22;45235;-78
2022/08/14 06:46:39;;;;;;;;;7.25;7.25;;;;;24.56;34.88;100255.75;6313065;22;45436;-78
2022/08/14 06:49:05;;;;;;;;;8.50;8.50;;;;;24.62;34.54;100265.25;6313096;22;46876;-78
2022/08/14 06:51:30;;;;;;;;;7.00;7.00;;;;;24.69;34.37;100273.75;6339961;22;45108;-80
2022/08/14 06:53:56;;;;;;;;;8.25;8.25;;;;;24.71;34.21;100271.81;6341214;22;45252;-78
2022/08/14 06:56:22;;;;;;;;;11.00;8.75;;;;;24.72;34.49;100278.91;6341119;22;45504;-82
2022/08/14 06:58:48;;;;;;;;;9.50;8.50;;;;;24.75;34.26;100278.69;6340998;22;45425;-82
2022/08/14 07:06:41;;;;;;;;;8.25;8.25;;;;;24.94;34.89;100275.56;6341063;22;45247;-80
2022/08/14 07:09:09;;;;;;;;;8.75;8.00;;;;;24.99;34.50;100281.47;6338973;22;47942;-79
2022/08/14 07:11:34;;;;;;;;;9.00;8.50;;;;;25.04;35.11;100276.63;6341087;22;45236;-79
2022/08/14 07:14:04;;;;;;;;;9.00;7.75;;;;;25.15;34.35;100286.63;6312775;22;45473;-78
2022/08/14 07:16:30;;;;;;;;;6.00;6.00;;;;;25.14;34.36;100268.75;6312469;22;45223;-77
2022/08/14 07:18:55;;;;;;;;;6.25;6.25;;;;;25.22;33.93;100277.16;6312647;22;46640;-78
2022/08/14 07:21:21;;;;;;;;;8.00;8.00;;;;;25.22;33.38;100269.09;6311925;22;45213;-77
2022/08/14 07:23:46;;;;;;;;;7.75;6.75;;;;;25.28;32.74;100280.28;6340926;22;45208;-77
2022/08/14 07:26:12;;;;;;;;;5.50;5.50;;;;;25.36;32.61;100290.50;6336843;22;45113;-78
2022/08/14 07:28:39;;;;;;;;;5.00;5.00;;;;;25.36;32.10;100287.81;6310154;22;47625;-78
2022/08/14 07:31:07;;;;;;;;;5.00;5.00;;;;;25.44;31.65;100281.84;6311764;22;45304;-78
2022/08/14 07:33:45;;;;;;;;;5.50;4.50;;;;;25.56;31.61;100294.44;6340458;22;45253;-78
2022/08/14 07:36:13;;;;;;;;;5.25;5.25;;;;;25.57;31.20;100279.13;6340402;22;45412;-78
2022/08/14 07:38:42;;;;;;;;;4.00;4.00;;;;;25.64;31.17;100285.78;6337040;22;47097;-78
2022/08/14 07:41:09;;;;;;;;;5.00;5.00;;;;;25.65;30.87;100280.28;6311856;22;45224;-78
2022/08/14 07:43:35;;;;;;;;;5.50;4.50;;;;;25.70;31.22;100278.09;6312650;22;45213;-78
2022/08/14 07:46:03;;;;;;;;;5.00;5.00;;;;;25.75;30.74;100286.69;6340485;22;45194;-78
2022/08/14 07:48:28;;;;;;;;;6.00;5.00;;;;;25.73;30.48;100294.03;6311230;22;46098;-78
2022/08/14 07:50:54;;;;;;;;;5.00;4.00;;;;;25.72;30.40;100286.94;6340094;22;45731;-79
2022/08/14 07:53:20;;;;;;;;;5.75;5.00;;;;;25.75;30.35;100291.25;6338146;22;45262;-78
2022/08/14 07:55:49;;;;;;;;;4.25;4.25;;;;;25.71;30.58;100277.13;6338215;22;45476;-79
2022/08/14 07:58:16;;;;;;;;;4.75;4.75;;;;;25.70;30.29;100270.00;6339914;22;45163;-79
2022/08/14 08:00:42;;;;;;;;;5.00;5.00;;;;;25.70;30.26;100256.53;6311255;22;45659;-78
2022/08/14 08:03:11;;;;;;;;;4.25;4.00;;;;;25.71;30.13;100252.88;6340876;22;45438;-79
2022/08/14 08:05:39;;;;;;;;;6.25;6.25;;;;;25.83;30.37;100261.00;6313698;22;45668;-79
2022/08/14 08:08:06;;;;;;;;;6.25;5.75;;;;;25.84;30.58;100266.31;6312536;22;47023;-79
2022/08/14 08:10:33;;;;;;;;;6.00;6.00;;;;;25.94;30.79;100272.72;6341937;22;45200;-79
2022/08/14 08:12:59;;;;;;;;;6.75;6.75;;;;;26.00;30.47;100267.84;6314079;22;45300;-82
2022/08/14 08:15:31;;;;;;;;;6.00;5.00;;;;;26.00;30.37;100270.53;6342037;22;45241;-82
2022/08/14 08:18:06;;;;;;;;;5.00;4.50;;;;;26.04;30.36;100266.66;6313671;22;47109;-82
2022/08/14 08:20:35;;;;;;;;;5.00;5.00;;;;;26.07;30.51;100261.03;6339817;22;46099;-81
2022/08/14 08:23:01;;;;;;;;;8.75;7.00;;;;;26.15;30.46;100272.94;6313476;22;45311;-82
2022/08/14 08:25:30;;;;;;;;;6.50;6.00;;;;;26.18;30.30;100288.03;6342066;22;45286;-82
2022/08/14 08:27:59;;;;;;;;;5.00;5.00;;;;;26.21;29.86;100279.69;6341552;22;45419;-81
2022/08/14 08:30:25;;;;;;;;;7.00;6.00;;;;;26.30;29.74;100286.22;6313308;22;45489;-79
2022/08/14 08:32:53;;;;;;;;;6.75;6.75;;;;;26.32;30.20;100270.78;6313678;22;45192;-79
2022/08/14 08:35:22;;;;;;;;;7.25;6.25;;;;;26.38;29.61;100273.88;6313412;22;45895;-80
2022/08/14 08:37:48;;;;;;;;;5.00;5.00;;;;;26.46;29.67;100281.34;6312975;22;47365;-80
2022/08/14 08:40:24;;;;;;;;;4.00;4.00;;;;;26.66;29.72;100292.50;6341985;22;45467;-80
2022/08/14 08:42:50;;;;;;;;;6.00;5.00;;;;;26.75;29.54;100283.66;6313757;22;45307;-81
2022/08/14 08:45:16;;;;;;;;;4.50;4.50;;;;;26.85;29.27;100279.25;6313722;22;45591;-83
2022/08/14 08:47:42;;;;;;;;;4.75;4.75;;;;;26.99;29.12;100289.81;6341973;22;45456;-81
2022/08/14 08:50:32;;;;;;;;;5.25;5.25;;;;;27.12;28.82;100292.41;6313594;22;45434;-80
2022/08/14 08:53:04;;;;;;;;;5.00;5.00;;;;;27.27;28.93;100290.34;6341633;22;45459;-82
2022/08/14 08:55:37;;;;;;;;;5.50;5.50;;;;;27.43;29.14;100288.09;6313445;22;45468;-82
2022/08/14 08:58:16;;;;;;;;;6.50;5.25;;;;;27.57;29.32;100294.22;6341834;22;46225;-82
2022/08/14 09:00:46;;;;;;;;;5.00;5.00;;;;;27.77;29.53;100295.28;6313023;22;45176;-79
2022/08/14 09:03:16;;;;;;;;;8.25;8.25;;;;;27.93;30.24;100284.91;6313396;22;45382;-78
2022/08/14 09:05:56;;;;;;;;;9.50;7.50;;;;;28.04;30.04;100263.25;6341342;22;45191;-78
2022/08/14 09:08:27;;;;;;;;;8.50;8.50;;;;;28.22;30.30;100277.03;6341188;22;45350;-78
2022/08/14 09:10:53;;;;;;;;;10.75;9.75;;;;;28.34;30.37;100264.31;6313309;22;45708;-80
2022/08/14 09:13:21;;;;;;;;;5.50;5.50;;;;;28.41;30.67;100243.81;6341528;22;45286;-77
2022/08/14 09:15:49;;;;;;;;;8.25;8.25;;;;;28.50;30.89;100255.75;6341231;22;45311;-80
2022/08/14 09:18:16;;;;;;;;;6.75;6.75;;;;;28.58;30.81;100259.50;6339781;22;47189;-83
2022/08/14 09:23:40;;;;;;;;;9.75;8.00;;;;;28.80;30.88;100261.19;6329941;22;45269;-84
2022/08/14 09:26:06;;;;;;;;;7.25;6.75;;;;;28.94;30.64;100262.69;6315144;22;45285;-81
2022/08/14 09:28:31;;;;;;;;;7.00;5.75;;;;;29.11;30.73;100263.06;6314972;22;47157;-86
2022/08/14 09:30:58;;;;;;;;;5.75;5.75;;;;;29.17;30.44;100252.53;6341705;22;45390;-87
2022/08/14 09:33:44;;;;;;;;;8.00;6.25;;;;;29.26;29.93;100239.16;6316978;22;45198;-86
2022/08/14 09:37:04;;;;;;;;;3.50;3.00;;;;;29.31;30.03;100259.44;6321119;22;45956;-87
2022/08/14 09:39:50;;;;;;;;;4.75;4.75;;;;;29.33;30.31;100251.16;6247363;22;47523;-85
2022/08/14 09:42:26;;;;;;;;;5.50;5.50;;;;;29.38;30.26;100249.75;6319166;22;46012;-85
2022/08/14 09:45:14;;;;;;;;;5.00;5.00;;;;;29.53;29.42;100271.03;6316896;22;45412;-87
2022/08/14 09:47:52;;;;;;;;;8.75;7.50;;;;;29.54;29.68;100265.50;6315179;22;45898;-87
2022/08/14 09:54:11;;;;;;;;;;;;;;;;;;;;;
2022/08/14 09:56:51;;;;;;;;;5.50;4.50;;;;;29.57;29.87;100256.22;6341825;22;70149;-87
2022/08/14 09:59:21;;;;;;;;;5.75;5.50;;;;;29.71;30.31;100261.25;6316266;22;45330;-82
2022/08/14 10:01:48;;;;;;;;;5.50;5.50;;;;;29.81;29.80;100264.00;6339440;22;46534;-82
2022/08/14 10:04:19;;;;;;;;;6.25;4.25;;;;;29.90;29.83;100261.25;6341045;22;45408;-81
2022/08/14 10:06:46;;;;;;;;;4.75;4.50;;;;;30.01;30.04;100262.97;6313407;22;45224;-85
2022/08/14 10:12:47;;;;;;;;;4.50;4.50;;;;;30.21;29.89;100249.41;6321136;22;46594;-84
2022/08/14 10:15:18;;;;;;;;;4.25;4.25;;;;;30.31;29.85;100239.41;6313338;22;45502;-84
2022/08/14 10:17:45;;;;;;;;;4.25;4.25;;;;;30.48;30.01;100252.25;6313654;22;45224;-82
2022/08/14 10:20:24;;;;;;;;;5.25;4.75;;;;;30.56;29.82;100243.38;6313666;22;45522;-83
2022/08/14 10:22:49;;;;;;;;;5.00;4.00;;;;;30.61;29.35;100246.50;6343071;22;45408;-81
2022/08/14 10:25:16;;;;;;;;;7.50;6.50;;;;;30.65;29.46;100245.19;6313460;22;45469;-82
2022/08/14 10:27:45;;;;;;;;;4.25;4.25;;;;;30.66;29.21;100236.03;6342511;22;45357;-87
2022/08/14 10:30:27;;;;;;;;;;;;;;;;;;;;;
2022/08/14 10:32:53;;;;;;;;;5.00;5.00;;;;;30.70;29.39;100233.88;6340533;22;74663;-86
2022/08/14 10:35:22;;;;;;;;;5.50;5.25;;;;;30.71;29.67;100235.56;6313836;22;45205;-86
2022/08/14 10:37:53;;;;;;;;;5.50;5.50;;;;;30.71;29.26;100235.56;6342062;22;45200;-87
2022/08/14 10:40:31;;;;;;;;;5.75;4.50;;;;;30.72;29.36;100243.59;6313683;22;45180;-87
2022/08/14 10:42:59;;;;;;;;;4.00;4.00;;;;;30.78;29.07;100255.72;6339781;22;47225;-86
2022/08/14 10:45:33;;;;;;;;;3.75;3.00;;;;;30.75;28.60;100254.16;6313937;22;45389;-86
2022/08/14 10:48:22;;;;;;;;;5.75;5.50;;;;;30.75;28.83;100254.16;6314827;22;45397;-84
2022/08/14 10:50:50;;;;;;;;;5.75;4.50;;;;;30.78;28.86;100259.31;6321741;22;45429;-86
2022/08/14 10:53:27;;;;;;;;;5.00;5.00;;;;;30.78;28.97;100263.88;6313196;22;46975;-87
2022/08/14 10:56:05;;;;;;;;;5.25;5.25;;;;;30.83;29.12;100272.50;6342046;22;45382;-86
2022/08/14 10:58:33;;;;;;;;;5.00;4.50;;;;;30.78;29.10;100251.16;6342012;22;45419;-86
2022/08/14 11:01:05;;;;;;;;;4.00;4.00;;;;;30.83;29.01;100264.34;6339191;22;45532;-85
2022/08/14 11:03:44;;;;;;;;;2.50;2.50;;;;;30.78;28.43;100267.47;6341795;22;45239;-86
2022/08/14 11:09:15;;;;;;;;;4.25;4.25;;;;;30.59;28.69;100269.38;6328796;22;45380;-83
2022/08/14 11:11:42;;;;;;;;;4.00;4.00;;;;;30.48;29.25;100260.41;6312950;22;45465;-83
2022/08/14 11:14:07;;;;;;;;;5.75;5.00;;;;;30.49;29.41;100250.38;6341373;22;46548;-84
2022/08/14 11:16:39;;;;;;;;;4.00;4.00;;;;;30.56;29.07;100265.09;6340551;22;45396;-83
2022/08/14 11:19:23;;;;;;;;;5.75;4.75;;;;;30.57;28.98;100279.53;6312900;22;45117;-83
2022/08/14 11:21:48;;;;;;;;;3.00;3.00;;;;;30.52;29.51;100264.50;6340796;22;45175;-80
2022/08/14 11:24:18;;;;;;;;;5.50;4.00;;;;;30.47;29.20;100268.69;6340666;22;45584;-78
2022/08/14 11:26:44;;;;;;;;;3.75;3.75;;;;;30.42;29.63;100276.41;6340795;22;45376;-78
2022/08/14 11:29:10;;;;;;;;;4.75;4.00;;;;;30.32;29.18;100269.13;6340694;22;45338;-77
2022/08/14 11:31:36;;;;;;;;;4.75;3.75;;;;;30.29;29.73;100274.00;6338348;22;45469;-77
2022/08/14 11:34:02;;;;;;;;;6.50;6.50;;;;;30.27;29.75;100267.88;6340534;22;45534;-75
2022/08/14 11:36:28;;;;;;;;;6.75;5.25;;;;;30.25;29.66;100273.44;6340217;22;45277;-75
2022/08/14 11:38:54;;;;;;;;;4.50;4.50;;;;;30.24;30.15;100277.16;6339655;22;45253;-78
2022/08/14 11:41:20;;;;;;;;;5.75;4.50;;;;;30.28;30.35;100273.13;6314103;22;45264;-76
2022/08/14 11:43:47;;;;;;;;;8.00;5.50;;;;;30.30;30.41;100273.84;6342329;22;46046;-78
2022/08/14 11:46:15;;;;;;;;;4.50;4.50;;;;;30.29;31.27;100276.72;6341932;22;45393;-79
2022/08/14 11:48:49;;;;;;;;;5.00;5.00;;;;;30.20;30.78;100275.69;6342230;22;45290;-76
2022/08/14 11:51:23;;;;;;;;;10.75;7.00;;;;;30.17;30.53;100281.41;6341640;22;45302;-76
2022/08/14 11:53:59;;;;;;;;;7.50;7.00;;;;;30.09;30.75;100268.53;6342038;22;46463;-75
2022/08/14 11:56:34;;;;;;;;;5.50;5.00;;;;;30.09;30.55;100279.41;6342230;22;45491;-78
2022/08/14 11:59:00;;;;;;;;;5.25;4.75;;;;;30.06;30.56;100278.84;6314625;22;45316;-85